This is the latest recevied weather packets stored in our database for station/object W2GRK-15. If no packets are shown the sender has not sent any weather packets the latest 10 day(s).
| Time | Temp. | Humidity | Pressure | Rain* | Wind** | Luminosity | Snow |
|---|---|---|---|---|---|---|---|
| 1777893518 | 9.44° C | 68% | 1015 hPa | 0 mm | - | 69 W/m² | - |
| 1777892419 | 7.78° C | 72% | 1015.2 hPa | 0 mm | - | 48 W/m² | - |
| 1777892306 | 7.22° C | 73% | 1015 hPa | 0 mm | - | 46 W/m² | - |
| 1777892129 | 6.67° C | 77% | 1014.9 hPa | 0 mm | - | 43 W/m² | - |
| 1777891759 | 5.56° C | 79% | 1015.2 hPa | 0 mm | - | 32 W/m² | - |
| 1777891098 | 5.56° C | 80% | 1015.2 hPa | 0 mm | - | 22 W/m² | - |
| 1777890679 | 5.56° C | 80% | 1015.1 hPa | 0 mm | - | 18 W/m² | - |
| 1777890502 | 5.56° C | 80% | 1015.2 hPa | 0 mm | - | 17 W/m² | - |
| 1777890325 | 5.56° C | 80% | 1015.2 hPa | 0 mm | - | 16 W/m² | - |
| 1777890104 | 5° C | 79% | 1015.1 hPa | 0 mm | - | 14 W/m² | - |
| 1777889535 | 5.56° C | 79% | 1015.1 hPa | 0 mm | - | 9 W/m² | - |
| 1777889004 | 5° C | 80% | 1014.9 hPa | 0 mm | - | 5 W/m² | - |
| 1777888457 | 5° C | 79% | 1014.8 hPa | 0 mm | - | 2 W/m² | - |
| 1777888344 | 5° C | 79% | 1014.7 hPa | 0 mm | - | 2 W/m² | - |
| 1777888215 | 5° C | 79% | 1014.8 hPa | 0 mm | - | 1 W/m² | - |
| 1777887990 | 5.56° C | 79% | 1014.9 hPa | 0 mm | - | 1 W/m² | - |
| 1777887945 | 5.56° C | 79% | 1014.8 hPa | 0 mm | - | 1 W/m² | - |
| 1777887796 | 5° C | 79% | 1014.8 hPa | 0 mm | - | 1 W/m² | - |
| 1777887442 | 5° C | 79% | 1014.9 hPa | 0 mm | - | 0 W/m² | - |
| 1777887378 | 5° C | 78% | 1014.7 hPa | 0 mm | - | 0 W/m² | - |
| 1777887305 | 5.56° C | 78% | 1014.8 hPa | 0 mm | - | 0 W/m² | - |
| 1777887088 | 5.56° C | 78% | 1014.7 hPa | 0 mm | - | 0 W/m² | - |
| 1777886959 | 5.56° C | 77% | 1014.8 hPa | 0 mm | - | 0 W/m² | - |
| 1777886718 | 5.56° C | 77% | 1014.7 hPa | 0 mm | - | 0 W/m² | - |
| 1777886669 | 5.56° C | 77% | 1014.9 hPa | 0 mm | - | 0 W/m² | - |
* Rain latest hour (hover to see other rain measurements)
** Current wind speed in m/s (hover to see current wind gust speed)